Taipei, Taiwan

11:41 AM CST on February 12, 2016 (GMT +0800)
ITAIPEIT2 | | Change Station
CLOSE
Current Station
Personal Weather Station
Location: Taipei Da'An, Taiwan
Elevation: 30 ft
Nearby Weather Stations

Elev 30 ft 25.03 °N, 121.53 °E | Updated 37 seconds ago

Mostly Cloudy
Mostly Cloudy
74.1 °F
Feels Like 76 °F
N
2.0
Wind Variable Wind from North
Gusts 6.0 mph

Today
High -- | Low -- °F
--% Chance of Precip.
Yesterday
High -- | Low -- °F
Precip. -- in
Pressure 29.98 in
Visibility 6.2 miles
Clouds Few 2000 ft
Mostly Cloudy 3200 ft
Heat Index 76 °F
Dew Point 65 °F
Humidity 73%
Rainfall 0.00 in
Snow Depth Not available.
6:31 AM 5:45 PM
Waxing Crescent, 17% visible
METAR RCSS 120330Z 30004KT 260V360 9999 FEW020 BKN032 23/16 Q1015 NOSIG RMK A3000
Pressure 29.98 in
Visibility 6.2 miles
Clouds Few 2000 ft
Mostly Cloudy 3200 ft
Heat Index 76 °F
Dew Point 65 °F
Humidity 73%
Rainfall 0.00 in
Snow Depth Not available.
6:31 AM 5:45 PM
Waxing Crescent, 17% visible
METAR RCSS 120330Z 30004KT 260V360 9999 FEW020 BKN032 23/16 Q1015 NOSIG RMK A3000

10-Day Weather Forecast

No radar image for this location.
×

Almanac

Astronomy

Feb. 12, 2016 Rise Set
Actual Time
Civil Twilight
Nautical Twilight
Astronomical Twilight
Moon
Length of Visible Light
Length of Day
Tomorrow will be .
, % of the Moon is Illuminated

Today's Extremes

Country Highs Country Lows

Community

WunderPhotos

Upload Photos

1,892,254 photos uploaded!

WunderBlog® & News

Nearby

Air Quality

  Air Quality AQ Index Pollutant
Not available.

Snow Depth

Station Depth Elevation

Earthquake Activity

City Distance Mag. Time & Date
Minimum magnitude displayed is 2.5.

Coastal Water Temperatures

Place Temperature

Stations

Nearby Weather Stations

Station Location Temp. Windchill Dew Point Humidity Wind Precip. Elev Updated Type